Time;durP1;ratioP1;P1;durP2;ratioP2;P2;SDS_P1;SDS_P2;PMS_P1;PMS_P2;Temp;Humidity;BMP_temperature;BMP_pressure;BME280_temperature;BME280_humidity;BME280_pressure;Samples;Min_cycle;Max_cycle;Signal;HPM_P1;HPM_P2
2023/07/29 00:01:29;;;;;;;2.17;1.97;;;;;;;23.26;63.29;98306.38;6921999;28;20256;-83
2023/07/29 00:04:50;;;;;;;3.37;1.97;;;;;;;23.11;62.81;98284.53;6921655;28;20204;-83
2023/07/29 00:08:12;;;;;;;2.10;2.00;;;;;;;23.04;63.06;98297.84;6919923;28;20239;-83
2023/07/29 00:11:34;;;;;;;2.13;2.00;;;;;;;22.95;64.00;98314.22;6921148;28;20323;-83
2023/07/29 00:14:56;;;;;;;2.63;1.80;;;;;;;22.71;63.86;98299.69;6920065;28;20299;-83
2023/07/29 00:18:18;;;;;;;2.13;1.53;;;;;;;23.07;63.15;98283.53;6919982;28;20276;-83
2023/07/29 00:21:41;;;;;;;2.07;1.60;;;;;;;22.95;63.04;98300.47;6920537;28;20224;-83
2023/07/29 00:25:02;;;;;;;1.63;1.53;;;;;;;21.96;66.22;98291.50;6921626;28;20222;-83
2023/07/29 00:28:24;;;;;;;5.00;1.67;;;;;;;22.42;64.23;98249.50;6920672;28;20200;-83
2023/07/29 00:31:47;;;;;;;1.67;1.57;;;;;;;23.01;62.00;98277.28;6920522;28;20240;-83
2023/07/29 00:35:09;;;;;;;1.70;1.60;;;;;;;23.05;62.24;98272.00;6920088;28;20250;-83
2023/07/29 00:38:30;;;;;;;1.70;1.60;;;;;;;23.19;61.84;98276.47;6896252;28;20697;-83
2023/07/29 00:41:52;;;;;;;1.50;1.40;;;;;;;23.17;61.42;98262.22;6909766;28;20308;-82
2023/07/29 00:45:14;;;;;;;1.40;1.33;;;;;;;23.07;62.24;98276.09;6915147;28;20205;-83
2023/07/29 00:48:36;;;;;;;1.93;1.83;;;;;;;22.95;62.64;98294.16;6895007;28;20238;-83
2023/07/29 00:51:58;;;;;;;2.63;2.07;;;;;;;22.88;63.38;98278.03;6892589;28;20763;-84
2023/07/29 00:55:20;;;;;;;1.80;1.70;;;;;;;22.80;62.04;98212.72;6870027;28;20284;-84
2023/07/29 00:58:41;;;;;;;1.97;1.87;;;;;;;23.00;62.98;98272.06;6866540;28;20206;-83
2023/07/29 01:02:03;;;;;;;1.80;1.70;;;;;;;23.13;62.65;98274.09;6867354;28;20242;-83
2023/07/29 01:05:31;;;;;;;2.63;1.80;;;;;;;23.06;62.47;98273.66;6867335;28;20289;-84
2023/07/29 01:08:57;;;;;;;1.80;1.70;;;;;;;23.28;62.07;98284.88;6868286;28;20215;-83
2023/07/29 01:12:22;;;;;;;2.07;1.90;;;;;;;23.48;61.23;98259.78;6868412;28;20213;-83
2023/07/29 01:15:47;;;;;;;2.50;1.77;;;;;;;23.57;60.80;98278.06;6867623;28;20846;-83
2023/07/29 01:19:15;;;;;;;1.80;1.60;;;;;;;23.36;61.20;98264.94;6869439;28;20292;-83
2023/07/29 01:22:39;;;;;;;2.10;1.90;;;;;;;22.87;62.80;98253.56;6868207;28;20282;-83
2023/07/29 01:26:03;;;;;;;1.93;1.83;;;;;;;22.76;64.01;98258.41;6866106;28;20297;-83
2023/07/29 01:29:24;;;;;;;3.60;2.07;;;;;;;22.91;63.32;98244.44;6866246;28;20290;-82
2023/07/29 01:32:51;;;;;;;2.60;2.23;;;;;;;22.96;63.19;98246.28;6865435;28;20321;-82
2023/07/29 01:36:16;;;;;;;3.03;1.80;;;;;;;23.00;63.27;98248.16;6866841;28;20216;-83
2023/07/29 01:39:38;;;;;;;3.60;2.30;;;;;;;22.87;63.07;98248.91;6869485;28;20234;-83
2023/07/29 01:43:01;;;;;;;3.83;1.80;;;;;;;22.68;63.92;98253.56;6869160;28;20304;-82
2023/07/29 01:46:22;;;;;;;2.10;2.00;;;;;;;22.62;64.70;98246.53;6868880;28;20683;-83
2023/07/29 01:49:44;;;;;;;5.07;2.00;;;;;;;22.86;64.23;98249.19;6867825;28;20221;-83
2023/07/29 01:53:05;;;;;;;3.63;2.00;;;;;;;22.99;63.58;98257.50;6868845;28;20753;-83
2023/07/29 01:56:27;;;;;;;1.80;1.70;;;;;;;22.97;63.12;98254.25;6869666;28;20211;-82
2023/07/29 01:59:49;;;;;;;2.00;1.90;;;;;;;23.08;62.87;98255.72;6884129;28;20284;-83
2023/07/29 02:03:11;;;;;;;3.67;1.80;;;;;;;23.14;62.03;98239.97;6878206;28;20707;-83
2023/07/29 02:06:32;;;;;;;2.30;1.90;;;;;;;23.05;62.19;98228.00;6877164;28;20209;-83
2023/07/29 02:09:54;;;;;;;2.90;1.80;;;;;;;23.26;61.54;98229.34;6876148;28;20295;-83
2023/07/29 02:13:15;;;;;;;2.03;1.93;;;;;;;23.27;61.82;98241.97;6876015;28;20791;-83
2023/07/29 02:16:38;;;;;;;1.93;1.80;;;;;;;23.28;61.91;98233.44;6875561;28;20353;-83
2023/07/29 02:20:00;;;;;;;2.07;1.90;;;;;;;23.14;62.36;98226.22;6876478;28;20225;-82
2023/07/29 02:23:21;;;;;;;2.50;1.90;;;;;;;23.11;62.41;98237.78;6876431;28;20296;-83
2023/07/29 02:26:43;;;;;;;3.70;2.17;;;;;;;23.03;63.25;98227.50;6875776;28;20291;-83
2023/07/29 02:30:05;;;;;;;2.10;1.90;;;;;;;23.07;63.17;98225.78;6869257;28;20311;-83
2023/07/29 02:33:28;;;;;;;1.90;1.80;;;;;;;22.86;63.68;98230.78;6873396;28;20341;-83
2023/07/29 02:36:50;;;;;;;1.97;1.83;;;;;;;22.76;64.04;98230.91;6875372;28;20372;-83
2023/07/29 02:40:12;;;;;;;4.53;2.50;;;;;;;22.88;64.17;98222.22;6876459;28;20368;-83
2023/07/29 02:43:34;;;;;;;4.00;2.17;;;;;;;22.82;64.02;98226.97;6876325;28;20276;-83
2023/07/29 02:46:56;;;;;;;2.90;2.30;;;;;;;22.77;64.50;98205.06;6874641;28;20297;-83
2023/07/29 02:50:19;;;;;;;3.30;2.10;;;;;;;23.00;63.38;98214.31;6876078;28;20229;-83
2023/07/29 02:53:40;;;;;;;2.20;2.00;;;;;;;23.18;62.14;98205.28;6875184;28;20269;-83
2023/07/29 02:57:02;;;;;;;2.23;2.00;;;;;;;23.26;61.72;98204.59;6874617;28;20682;-83
2023/07/29 03:00:23;;;;;;;3.17;2.00;;;;;;;23.31;61.78;98208.06;6869282;28;20403;-83
2023/07/29 03:03:45;;;;;;;2.30;2.10;;;;;;;23.47;60.77;98214.94;6874490;28;20717;-83
2023/07/29 03:07:07;;;;;;;2.47;2.20;;;;;;;23.04;61.93;98201.63;6895376;28;20696;-82
2023/07/29 03:10:29;;;;;;;2.43;1.80;;;;;;;23.05;61.42;98184.81;6895529;28;20322;-83
2023/07/29 03:13:50;;;;;;;4.03;2.33;;;;;;;22.91;62.33;98205.97;6893110;28;20291;-83
2023/07/29 03:17:12;;;;;;;3.10;2.20;;;;;;;23.04;62.44;98194.19;6893029;28;20204;-82
2023/07/29 03:20:33;;;;;;;2.47;1.90;;;;;;;23.18;62.06;98183.28;6893848;28;20690;-83
2023/07/29 03:23:56;;;;;;;2.37;2.13;;;;;;;23.06;62.11;98169.94;6892222;28;20209;-83
2023/07/29 03:27:18;;;;;;;3.43;1.93;;;;;;;22.98;61.96;98180.81;6891642;28;20213;-83
2023/07/29 03:30:40;;;;;;;2.77;1.80;;;;;;;22.83;62.80;98170.06;6892475;28;20348;-82
2023/07/29 03:34:01;;;;;;;2.30;2.07;;;;;;;22.85;62.65;98182.41;6892855;28;20225;-83
2023/07/29 03:37:23;;;;;;;2.27;2.10;;;;;;;22.69;63.47;98185.66;6892187;28;20633;-82
2023/07/29 03:40:46;;;;;;;2.50;2.30;;;;;;;22.47;64.01;98178.03;6891624;28;20239;-82
2023/07/29 03:44:08;;;;;;;2.67;2.47;;;;;;;22.40;64.23;98161.06;6891417;28;20208;-82
2023/07/29 03:47:29;;;;;;;3.37;2.30;;;;;;;22.42;64.42;98161.56;6890247;28;20666;-82
2023/07/29 03:50:51;;;;;;;2.50;2.30;;;;;;;22.40;64.67;98174.78;6890630;28;20873;-82
2023/07/29 03:54:12;;;;;;;3.27;2.33;;;;;;;22.14;63.89;98107.59;6890682;28;20271;-83
2023/07/29 03:57:35;;;;;;;2.70;2.50;;;;;;;22.76;63.73;98186.09;6892156;28;20191;-83
2023/07/29 04:00:56;;;;;;;2.60;2.40;;;;;;;22.59;63.95;98170.16;6890969;28;20236;-83
2023/07/29 04:04:18;;;;;;;2.33;2.20;;;;;;;22.71;63.98;98172.47;6891461;28;20345;-83
2023/07/29 04:07:40;;;;;;;2.90;2.50;;;;;;;22.31;64.71;98159.28;6879329;28;20212;-83
2023/07/29 04:11:02;;;;;;;4.30;2.50;;;;;;;22.63;64.55;98176.69;6892536;28;20379;-83
2023/07/29 04:14:24;;;;;;;3.73;2.80;;;;;;;22.53;64.77;98187.03;6867338;28;20273;-83
2023/07/29 04:17:46;;;;;;;2.53;2.20;;;;;;;21.90;66.58;98186.41;6891957;28;20410;-83
2023/07/29 04:21:07;;;;;;;5.77;2.77;;;;;;;21.49;68.74;98189.88;6892102;28;20317;-83
2023/07/29 04:24:29;;;;;;;4.40;2.80;;;;;;;21.96;66.13;98122.09;6891364;28;20262;-83
2023/07/29 04:27:50;;;;;;;3.07;2.40;;;;;;;22.47;65.93;98194.50;6890112;28;20212;-82
2023/07/29 04:31:13;;;;;;;2.97;2.73;;;;;;;22.73;65.34;98198.50;6890071;28;20707;-83
2023/07/29 04:34:35;;;;;;;8.63;3.30;;;;;;;22.77;65.10;98191.31;6889826;28;20295;-83
2023/07/29 04:37:57;;;;;;;4.63;2.97;;;;;;;22.74;65.14;98180.94;6887596;28;20287;-82
2023/07/29 04:41:18;;;;;;;3.37;3.17;;;;;;;22.84;65.02;98189.00;6894108;28;20309;-83
2023/07/29 04:44:41;;;;;;;4.07;2.87;;;;;;;22.88;64.78;98200.22;6896417;28;20254;-84
2023/07/29 04:48:05;;;;;;;5.00;2.80;;;;;;;22.77;65.15;98185.03;6920151;28;20200;-84
2023/07/29 04:51:26;;;;;;;5.63;3.00;;;;;;;22.16;66.77;98181.44;6898165;28;20316;-83
2023/07/29 04:54:48;;;;;;;5.83;2.97;;;;;;;22.34;66.88;98217.19;6894044;28;20295;-83
2023/07/29 04:58:10;;;;;;;4.73;3.20;;;;;;;21.90;68.40;98219.34;6894605;28;20282;-83
2023/07/29 05:01:31;;;;;;;4.23;2.80;;;;;;;22.43;66.93;98231.91;6895326;28;20296;-83
2023/07/29 05:04:54;;;;;;;4.53;3.17;;;;;;;22.24;67.48;98241.22;6891396;28;20576;-83
2023/07/29 05:08:16;;;;;;;3.67;3.00;;;;;;;22.15;68.64;98223.75;6890841;28;20349;-83
2023/07/29 05:11:37;;;;;;;3.33;3.03;;;;;;;21.54;70.45;98237.28;6891863;28;20299;-83
2023/07/29 05:14:59;;;;;;;2.90;2.60;;;;;;;21.62;70.99;98225.69;6869299;28;20626;-83
2023/07/29 05:18:20;;;;;;;4.10;2.50;;;;;;;21.86;68.84;98168.94;6867964;28;20213;-83
2023/07/29 05:21:43;;;;;;;2.70;2.50;;;;;;;22.94;67.31;98212.75;6868388;28;20372;-84
2023/07/29 05:25:06;;;;;;;7.90;2.93;;;;;;;22.83;66.32;98181.88;6868156;28;20252;-83
2023/07/29 05:28:27;;;;;;;4.97;3.23;;;;;;;23.06;66.56;98202.94;6870181;28;20293;-83
2023/07/29 05:31:49;;;;;;;4.17;3.40;;;;;;;23.05;66.05;98204.06;6871456;28;20570;-83
2023/07/29 05:35:11;;;;;;;3.47;2.87;;;;;;;23.05;66.14;98206.81;6882681;28;20266;-83
2023/07/29 05:38:34;;;;;;;4.73;2.97;;;;;;;23.01;66.25;98193.97;6876372;28;20364;-83
2023/07/29 05:41:55;;;;;;;3.77;2.80;;;;;;;23.28;65.29;98213.34;6874732;28;20236;-83
2023/07/29 05:45:17;;;;;;;2.63;2.43;;;;;;;23.08;65.12;98214.47;6894359;28;20201;-83
2023/07/29 05:48:38;;;;;;;4.70;2.70;;;;;;;23.05;65.18;98201.31;6894886;28;20299;-83
2023/07/29 05:52:00;;;;;;;3.10;2.83;;;;;;;22.71;66.99;98200.75;6894718;28;20298;-83
2023/07/29 05:55:23;;;;;;;3.07;2.63;;;;;;;22.93;65.69;98205.63;6895051;28;20577;-84
2023/07/29 05:58:44;;;;;;;6.43;2.50;;;;;;;23.14;65.98;98193.22;6893048;28;20212;-84
2023/07/29 06:02:07;;;;;;;3.47;2.20;;;;;;;23.44;64.05;98198.22;6896117;28;20705;-84
2023/07/29 06:05:28;;;;;;;4.50;2.20;;;;;;;23.80;63.78;98179.91;6898569;28;20277;-84
2023/07/29 06:08:50;;;;;;;3.17;2.30;;;;;;;24.02;62.55;98177.31;6919559;28;20335;-84
2023/07/29 06:12:13;;;;;;;2.50;2.30;;;;;;;24.09;62.87;98173.03;6926708;28;20383;-83
2023/07/29 06:15:35;;;;;;;3.10;2.20;;;;;;;24.19;62.26;98160.97;6924065;28;20256;-84
2023/07/29 06:18:56;;;;;;;1.97;1.87;;;;;;;24.52;61.19;98173.44;6923453;28;20629;-83
2023/07/29 06:22:18;;;;;;;2.10;2.00;;;;;;;24.81;60.15;98179.44;6923013;28;20224;-83
2023/07/29 06:25:39;;;;;;;2.17;1.67;;;;;;;25.22;59.42;98169.84;6923711;28;20741;-84
2023/07/29 06:29:02;;;;;;;2.20;1.63;;;;;;;24.23;60.24;98154.53;6923504;28;20260;-84
2023/07/29 06:32:23;;;;;;;2.53;1.90;;;;;;;24.75;60.70;98178.75;6928006;28;20400;-84
2023/07/29 06:35:45;;;;;;;3.07;2.10;;;;;;;24.66;60.86;98169.56;6924072;28;20284;-84
2023/07/29 06:39:06;;;;;;;2.03;1.83;;;;;;;24.32;60.97;98114.13;6923370;28;20305;-84
2023/07/29 06:42:28;;;;;;;2.40;2.20;;;;;;;24.19;60.74;98103.13;6926368;28;20224;-84
2023/07/29 06:45:51;;;;;;;4.70;2.00;;;;;;;24.70;61.55;98191.81;6901094;28;20263;-82
2023/07/29 06:49:13;;;;;;;2.47;1.80;;;;;;;24.73;60.98;98175.47;6894761;28;20203;-81
2023/07/29 06:52:34;;;;;;;2.43;1.97;;;;;;;25.02;60.73;98181.38;6896323;28;20276;-81
2023/07/29 06:55:56;;;;;;;2.43;2.20;;;;;;;24.81;60.93;98187.69;6891418;28;20205;-81
2023/07/29 06:59:17;;;;;;;2.73;2.10;;;;;;;24.99;60.71;98200.50;6892420;28;20551;-80
2023/07/29 07:02:41;;;;;;;2.10;2.00;;;;;;;25.19;59.81;98192.53;6891854;28;20294;-81
2023/07/29 07:06:03;;;;;;;2.20;2.00;;;;;;;25.21;59.26;98203.28;6893683;28;20216;-81
2023/07/29 07:09:24;;;;;;;2.40;1.87;;;;;;;25.00;59.48;98208.47;6892009;28;20229;-80
2023/07/29 07:12:46;;;;;;;4.30;2.50;;;;;;;24.82;60.33;98220.50;6889686;28;20245;-81
2023/07/29 07:16:07;;;;;;;2.93;2.00;;;;;;;24.58;60.58;98217.19;6865197;28;20204;-82
2023/07/29 07:19:30;;;;;;;2.23;2.03;;;;;;;23.91;63.04;98242.78;6865966;28;20277;-81
2023/07/29 07:22:52;;;;;;;2.57;2.33;;;;;;;23.26;65.58;98254.91;6866492;28;20209;-81
2023/07/29 07:26:13;;;;;;;3.53;2.20;;;;;;;23.00;66.73;98259.16;6866883;28;20364;-80
2023/07/29 07:29:35;;;;;;;2.93;2.40;;;;;;;23.11;66.61;98249.63;6864664;28;20234;-81
2023/07/29 07:32:56;;;;;;;2.60;2.40;;;;;;;23.13;66.97;98247.38;6866151;28;20230;-81
2023/07/29 07:36:19;;;;;;;4.00;2.33;;;;;;;23.26;67.07;98240.34;6864526;28;20575;-80
2023/07/29 07:39:41;;;;;;;4.73;2.57;;;;;;;23.34;66.35;98240.47;6864376;28;20755;-80
2023/07/29 07:43:02;;;;;;;3.77;2.77;;;;;;;23.22;66.15;98190.63;6865239;28;20289;-81
2023/07/29 07:46:24;;;;;;;2.70;2.50;;;;;;;23.37;66.35;98236.31;6870503;28;20218;-83
2023/07/29 07:49:45;;;;;;;2.57;2.37;;;;;;;23.12;65.97;98146.75;6864662;28;20225;-83
2023/07/29 07:53:08;;;;;;;3.20;2.47;;;;;;;23.94;65.37;98239.41;6865776;28;20348;-83
2023/07/29 07:56:30;;;;;;;2.83;2.40;;;;;;;24.07;64.29;98224.84;6863616;28;20222;-84
2023/07/29 07:59:52;;;;;;;3.03;2.13;;;;;;;24.01;64.40;98233.53;6865978;28;20784;-83
2023/07/29 08:03:13;;;;;;;3.43;1.93;;;;;;;23.73;64.68;98223.56;6866347;28;20213;-81
2023/07/29 08:06:35;;;;;;;4.10;2.20;;;;;;;24.09;64.23;98230.03;6869603;28;20299;-81
2023/07/29 08:09:58;;;;;;;2.67;2.00;;;;;;;24.35;63.26;98220.13;6869600;28;20225;-81
2023/07/29 08:13:19;;;;;;;1.70;1.60;;;;;;;24.42;62.77;98226.06;6867180;28;20234;-81
2023/07/29 08:16:41;;;;;;;2.40;1.80;;;;;;;24.81;61.16;98224.38;6863915;28;20367;-81
2023/07/29 08:20:02;;;;;;;5.43;1.93;;;;;;;24.15;63.89;98237.91;6864138;28;20363;-81
2023/07/29 08:23:25;;;;;;;2.00;1.77;;;;;;;23.92;63.82;98229.81;6864514;28;20256;-81
2023/07/29 08:26:48;;;;;;;2.53;2.10;;;;;;;23.89;64.54;98258.78;6863821;28;20207;-81
2023/07/29 08:30:10;;;;;;;3.27;2.07;;;;;;;24.15;64.58;98254.44;6864252;28;20792;-80
2023/07/29 08:33:33;;;;;;;2.30;2.10;;;;;;;24.64;62.87;98243.50;6864179;28;20234;-81
2023/07/29 08:36:54;;;;;;;2.23;2.03;;;;;;;25.09;60.44;98249.94;6863328;28;20208;-81
2023/07/29 08:40:16;;;;;;;3.00;1.90;;;;;;;25.40;60.00;98242.56;6863812;28;20791;-81
2023/07/29 08:43:40;;;;;;;2.07;1.97;;;;;;;25.66;60.55;98255.41;6863944;28;20289;-81
2023/07/29 08:47:02;;;;;;;2.10;1.90;;;;;;;25.92;58.56;98253.66;6866919;28;20212;-81
2023/07/29 08:50:24;;;;;;;2.87;2.17;;;;;;;26.26;58.70;98255.75;6870610;28;20713;-81
2023/07/29 08:53:46;;;;;;;2.63;2.03;;;;;;;26.16;58.11;98256.84;6878731;28;20225;-81
2023/07/29 08:57:07;;;;;;;4.20;2.30;;;;;;;26.39;57.66;98222.47;6914545;28;20207;-82
2023/07/29 09:00:30;;;;;;;2.73;2.10;;;;;;;26.00;57.17;98185.75;6897415;28;20260;-82
2023/07/29 09:03:52;;;;;;;3.00;2.17;;;;;;;26.07;58.12;98250.47;6896902;28;20302;-81
2023/07/29 09:07:13;;;;;;;2.13;2.03;;;;;;;26.40;57.37;98243.44;6896719;28;20232;-83
2023/07/29 09:10:36;;;;;;;3.30;2.40;;;;;;;26.87;57.05;98244.53;6896935;28;20257;-81
2023/07/29 09:13:58;;;;;;;4.37;2.00;;;;;;;26.69;57.92;98248.44;6893133;28;20686;-82
2023/07/29 09:17:21;;;;;;;2.50;2.00;;;;;;;27.11;56.98;98236.59;6899084;28;20207;-82
2023/07/29 09:20:43;;;;;;;3.30;2.13;;;;;;;27.56;55.62;98241.50;6903132;28;20281;-82
2023/07/29 09:24:07;;;;;;;2.10;1.90;;;;;;;27.31;55.82;98238.75;6897405;28;20279;-82
2023/07/29 09:27:31;;;;;;;4.67;2.20;;;;;;;27.72;53.63;98225.16;6898830;28;20211;-81
2023/07/29 09:30:53;;;;;;;2.40;2.20;;;;;;;27.27;56.25;98233.06;6896601;28;20225;-81
2023/07/29 09:34:16;;;;;;;2.47;2.27;;;;;;;27.13;54.80;98232.34;6897507;28;20236;-81
2023/07/29 09:37:39;;;;;;;2.73;1.90;;;;;;;26.89;56.02;98234.00;6896653;28;20212;-82
2023/07/29 09:41:00;;;;;;;2.37;2.17;;;;;;;26.53;55.90;98236.97;6896148;28;20593;-82
2023/07/29 09:44:22;;;;;;;2.27;2.00;;;;;;;27.20;54.90;98235.47;6895480;28;20291;-83
2023/07/29 09:47:47;;;;;;;2.43;2.20;;;;;;;28.77;53.42;98221.31;6894977;28;20212;-83
2023/07/29 09:51:13;;;;;;;2.97;2.17;;;;;;;28.63;51.25;98176.34;6895643;28;20642;-83
2023/07/29 09:54:37;;;;;;;2.90;1.73;;;;;;;29.25;49.54;98224.41;6895084;28;20713;-82
2023/07/29 09:58:01;;;;;;;2.03;1.93;;;;;;;29.73;48.37;98230.16;6895226;28;20239;-82
2023/07/29 10:01:23;;;;;;;2.10;1.90;;;;;;;29.61;46.15;98169.78;6903417;28;20229;-86
2023/07/29 10:04:46;;;;;;;4.20;2.30;;;;;;;29.66;46.12;98196.56;6926756;28;20349;-83
2023/07/29 10:08:10;;;;;;;1.93;1.83;;;;;;;28.19;49.24;98133.34;6925510;28;20752;-83
2023/07/29 10:11:33;;;;;;;2.37;1.90;;;;;;;28.15;50.16;98123.28;6926486;28;20300;-83
2023/07/29 10:14:56;;;;;;;2.23;1.90;;;;;;;29.23;47.97;98133.09;6903722;28;20371;-82
2023/07/29 10:18:17;;;;;;;2.03;1.83;;;;;;;30.10;46.79;98204.91;6897690;28;20266;-82
2023/07/29 10:21:40;;;;;;;2.20;1.73;;;;;;;30.47;46.20;98203.75;6896975;28;20225;-83
2023/07/29 10:25:05;;;;;;;2.30;1.90;;;;;;;30.85;44.91;98197.81;6895945;28;20296;-83
2023/07/29 10:28:30;;;;;;;1.90;1.80;;;;;;;31.08;43.71;98199.72;6893687;28;20198;-83
2023/07/29 10:31:53;;;;;;;1.73;1.63;;;;;;;31.24;43.30;98194.28;6897464;28;20708;-83
2023/07/29 10:35:16;;;;;;;3.60;2.33;;;;;;;30.41;45.41;98196.78;6898150;28;20225;-83
2023/07/29 10:38:37;;;;;;;1.90;1.77;;;;;;;30.70;42.19;98196.56;6874991;28;20300;-82
2023/07/29 10:42:01;;;;;;;2.30;1.63;;;;;;;27.53;49.85;98221.91;6872414;28;20783;-82
2023/07/29 10:45:24;;;;;;;1.80;1.40;;;;;;;26.63;52.97;98214.59;6873090;28;20667;-83
2023/07/29 10:49:07;;;;;;;1.77;1.67;;;;;;;26.73;53.48;98227.28;6885344;28;20289;-82
2023/07/29 10:52:38;;;;;;;2.40;2.20;;;;;;;25.84;57.63;98229.53;6866744;28;20294;-83
2023/07/29 10:56:00;;;;;;;2.27;1.97;;;;;;;25.52;60.05;98235.34;6858759;28;20679;-82
2023/07/29 10:59:34;;;;;;;3.93;2.13;;;;;;;25.99;62.81;98234.69;6863753;28;20723;-82
2023/07/29 11:03:00;;;;;;;1.80;1.70;;;;;;;27.11;58.24;98225.50;6866410;28;20206;-83
2023/07/29 11:06:22;;;;;;;3.33;1.90;;;;;;;27.67;57.95;98223.34;6866429;28;20208;-83
2023/07/29 11:09:52;;;;;;;2.47;2.00;;;;;;;27.60;55.00;98222.25;6865482;28;20221;-81
2023/07/29 11:13:14;;;;;;;2.23;2.00;;;;;;;28.55;54.73;98211.31;6864205;28;20322;-81
2023/07/29 11:16:37;;;;;;;3.13;1.83;;;;;;;28.59;52.91;98225.31;6854870;28;20209;-81
2023/07/29 11:20:00;;;;;;;1.87;1.53;;;;;;;28.44;53.14;98229.50;6865945;28;20314;-82
2023/07/29 11:23:28;;;;;;;4.37;1.83;;;;;;;29.07;53.20;98228.47;6872522;28;20201;-83
2023/07/29 11:26:50;;;;;;;2.93;1.90;;;;;;;30.06;48.42;98215.06;6875883;28;20233;-83
2023/07/29 11:30:12;;;;;;;1.80;1.70;;;;;;;31.20;45.35;98210.06;6900879;28;20244;-82
2023/07/29 11:33:35;;;;;;;1.87;1.70;;;;;;;30.82;44.85;98218.00;6910997;28;20313;-83
2023/07/29 11:36:57;;;;;;;2.23;1.70;;;;;;;30.07;45.53;98224.22;6910694;28;20185;-83
2023/07/29 11:40:19;;;;;;;2.10;1.90;;;;;;;30.42;44.38;98200.41;6915789;28;20225;-82
2023/07/29 11:43:41;;;;;;;2.40;1.73;;;;;;;30.63;44.34;98215.81;6898176;28;20619;-83
2023/07/29 11:47:02;;;;;;;2.20;1.67;;;;;;;30.77;43.42;98191.22;6896804;28;20280;-82
2023/07/29 11:50:25;;;;;;;2.53;1.57;;;;;;;29.96;43.49;98203.59;6891561;28;20285;-82
2023/07/29 11:53:47;;;;;;;2.17;1.60;;;;;;;29.85;44.73;98146.81;6895288;28;20368;-82
2023/07/29 11:57:09;;;;;;;1.83;1.60;;;;;;;30.53;44.07;98185.66;6901639;28;20291;-82
2023/07/29 12:00:31;;;;;;;2.07;1.50;;;;;;;29.82;44.89;98178.06;6903127;28;20234;-81
2023/07/29 12:03:52;;;;;;;1.60;1.50;;;;;;;29.96;44.10;98186.91;6895591;28;20315;-81
2023/07/29 12:07:17;;;;;;;2.33;1.57;;;;;;;30.54;43.82;98189.25;6897812;28;20284;-82
2023/07/29 12:10:39;;;;;;;1.70;1.60;;;;;;;31.18;42.37;98185.34;6901585;28;20258;-82
2023/07/29 12:14:01;;;;;;;1.90;1.80;;;;;;;31.08;41.04;98162.72;6898171;28;20246;-81
2023/07/29 12:17:22;;;;;;;1.87;1.77;;;;;;;31.05;39.92;98172.59;6897338;28;20296;-83
2023/07/29 12:20:44;;;;;;;1.70;1.60;;;;;;;30.45;42.19;98169.09;6896093;28;20313;-81
2023/07/29 12:24:07;;;;;;;2.30;1.50;;;;;;;31.15;41.44;98171.28;6894707;28;20810;-81
2023/07/29 12:27:31;;;;;;;2.03;1.73;;;;;;;30.99;40.32;98131.41;6892886;28;20237;-81
2023/07/29 12:30:54;;;;;;;2.33;2.07;;;;;;;31.27;39.51;98169.28;6893677;28;20232;-81
2023/07/29 12:34:19;;;;;;;2.00;1.90;;;;;;;31.07;38.52;98072.78;6894567;28;20238;-81
2023/07/29 12:37:42;;;;;;;2.07;1.90;;;;;;;31.77;39.38;98155.56;6892356;28;20189;-81
2023/07/29 12:41:06;;;;;;;2.70;1.80;;;;;;;31.55;38.76;98149.75;6892145;28;20733;-80
2023/07/29 12:44:31;;;;;;;2.13;1.93;;;;;;;32.14;38.50;98145.75;6892893;28;20227;-82
2023/07/29 12:47:52;;;;;;;2.43;1.80;;;;;;;31.72;39.07;98153.03;6891095;28;20301;-84
2023/07/29 12:51:14;;;;;;;1.80;1.70;;;;;;;32.24;37.78;98159.19;6892488;28;20247;-81
2023/07/29 12:54:35;;;;;;;6.17;2.20;;;;;;;32.69;38.20;98165.06;6895167;28;20597;-82
2023/07/29 12:57:59;;;;;;;2.70;2.50;;;;;;;31.95;36.37;98145.69;6895716;28;20342;-85
2023/07/29 13:01:20;;;;;;;2.40;2.20;;;;;;;32.21;36.88;98150.72;6892682;28;20225;-82
2023/07/29 13:04:42;;;;;;;3.33;2.23;;;;;;;32.20;35.58;98066.19;6894322;28;20527;-81
2023/07/29 13:08:03;;;;;;;2.53;2.10;;;;;;;32.83;34.46;98150.66;6892581;28;20296;-84
2023/07/29 13:11:26;;;;;;;2.00;1.90;;;;;;;31.67;34.57;98147.69;6893516;28;20331;-83
2023/07/29 13:14:48;;;;;;;3.77;1.93;;;;;;;31.43;33.99;98147.84;6889649;28;20234;-83
2023/07/29 13:18:10;;;;;;;2.03;1.90;;;;;;;31.62;33.80;98138.78;6892206;28;20673;-83
2023/07/29 13:21:31;;;;;;;1.97;1.87;;;;;;;31.78;32.81;98139.66;6894259;28;20319;-82
2023/07/29 13:24:54;;;;;;;2.70;1.90;;;;;;;31.95;32.50;98140.09;6894815;28;20268;-85
2023/07/29 13:28:17;;;;;;;2.23;2.03;;;;;;;32.11;32.87;98145.66;6892022;28;20212;-83
2023/07/29 13:31:40;;;;;;;3.03;1.73;;;;;;;32.22;32.79;98152.31;6896185;28;20303;-83
2023/07/29 13:35:01;;;;;;;1.80;1.70;;;;;;;32.10;33.04;98142.09;6898885;28;20326;-83
2023/07/29 13:38:23;;;;;;;2.13;1.93;;;;;;;31.80;33.87;98143.72;6894793;28;20220;-82
2023/07/29 13:41:44;;;;;;;3.03;2.33;;;;;;;31.77;33.23;98116.53;6895477;28;20239;-83
2023/07/29 13:45:07;;;;;;;1.73;1.63;;;;;;;31.59;34.07;98150.66;6895856;28;20227;-83
2023/07/29 13:48:30;;;;;;;2.70;2.10;;;;;;;31.31;34.99;98150.69;6894532;28;20215;-83
2023/07/29 13:51:51;;;;;;;2.63;2.13;;;;;;;31.07;35.05;98127.69;6894445;28;20603;-83
2023/07/29 13:55:13;;;;;;;2.33;1.87;;;;;;;31.60;34.56;98146.72;6897131;28;20235;-83
2023/07/29 13:58:34;;;;;;;1.80;1.70;;;;;;;31.54;34.79;98146.16;6899996;28;20215;-84
2023/07/29 14:01:56;;;;;;;2.23;2.03;;;;;;;31.86;34.79;98139.50;6900118;28;20661;-85
2023/07/29 14:05:19;;;;;;;2.30;2.10;;;;;;;30.97;34.08;98140.13;6898161;28;20281;-83
2023/07/29 14:08:41;;;;;;;2.30;1.70;;;;;;;31.99;34.23;98131.81;6898760;28;20206;-84
2023/07/29 14:12:03;;;;;;;2.13;1.93;;;;;;;32.25;33.12;98148.84;6899588;28;20323;-83
2023/07/29 14:15:25;;;;;;;2.40;2.20;;;;;;;32.10;33.62;98142.09;6898324;28;20281;-85
2023/07/29 14:18:46;;;;;;;2.90;2.10;;;;;;;31.31;34.92;98147.91;6897306;28;20297;-84
2023/07/29 14:22:10;;;;;;;2.33;2.13;;;;;;;31.40;34.79;98133.81;6894761;28;20729;-83
2023/07/29 14:25:37;;;;;;;1.90;1.80;;;;;;;31.10;35.38;98122.22;6892060;28;20217;-83
2023/07/29 14:28:59;;;;;;;1.87;1.77;;;;;;;31.60;34.90;98163.44;6893669;28;20274;-83
2023/07/29 14:32:20;;;;;;;1.90;1.80;;;;;;;31.11;35.39;98079.25;6893586;28;20231;-82
2023/07/29 14:35:42;;;;;;;2.13;1.93;;;;;;;31.77;33.96;98152.78;6893154;28;20267;-82
2023/07/29 14:39:05;;;;;;;1.93;1.83;;;;;;;31.30;34.50;98126.78;6893616;28;20699;-83
2023/07/29 14:42:27;;;;;;;3.10;2.00;;;;;;;31.34;34.65;98143.59;6892862;28;20295;-82
2023/07/29 14:45:49;;;;;;;2.30;2.10;;;;;;;31.39;34.44;98144.16;6892674;28;20275;-82
2023/07/29 14:49:10;;;;;;;2.07;1.90;;;;;;;30.87;35.11;98140.63;6893480;28;20357;-82
2023/07/29 14:52:32;;;;;;;2.77;1.97;;;;;;;31.12;35.76;98147.72;6894474;28;20359;-83
2023/07/29 14:55:54;;;;;;;2.20;2.00;;;;;;;30.95;36.39;98141.66;6897043;28;20783;-82
2023/07/29 14:59:16;;;;;;;1.87;1.77;;;;;;;30.66;35.67;98091.88;6896826;28;20581;-84
2023/07/29 15:02:38;;;;;;;2.47;2.27;;;;;;;30.51;36.75;98145.44;6893603;28;20380;-84
2023/07/29 15:06:00;;;;;;;2.10;2.00;;;;;;;30.74;36.31;98149.34;6893615;28;20217;-83
2023/07/29 15:09:22;;;;;;;3.77;2.07;;;;;;;30.72;36.67;98146.13;6897392;28;20209;-83
2023/07/29 15:12:45;;;;;;;2.40;2.20;;;;;;;30.83;36.29;98145.28;6896867;28;20216;-83
2023/07/29 15:16:07;;;;;;;2.63;2.43;;;;;;;30.91;36.74;98155.44;6893139;28;20229;-83
2023/07/29 15:19:28;;;;;;;2.40;2.27;;;;;;;31.47;35.39;98143.19;6893209;28;20224;-84
2023/07/29 15:22:50;;;;;;;2.20;2.00;;;;;;;31.30;35.02;98149.06;6894012;28;20291;-84
2023/07/29 15:26:12;;;;;;;3.70;2.30;;;;;;;31.10;36.31;98133.34;6891283;28;20307;-84
2023/07/29 15:29:35;;;;;;;2.33;2.10;;;;;;;30.91;36.10;98147.09;6894688;28;20291;-83
2023/07/29 15:32:57;;;;;;;2.10;1.90;;;;;;;30.99;36.01;98146.16;6893028;28;20208;-85
2023/07/29 15:36:18;;;;;;;2.50;2.30;;;;;;;30.80;36.57;98112.59;6893099;28;20237;-84
2023/07/29 15:39:40;;;;;;;1.90;1.80;;;;;;;31.16;35.51;98123.56;6897202;28;20227;-84
2023/07/29 15:43:01;;;;;;;2.33;2.13;;;;;;;31.22;35.54;98118.56;6904552;28;20268;-85
2023/07/29 15:46:25;;;;;;;2.57;2.13;;;;;;;31.08;35.23;98115.38;6919836;28;20335;-85
2023/07/29 15:49:46;;;;;;;2.30;2.13;;;;;;;31.14;35.83;98150.16;6919035;28;20227;-84
2023/07/29 15:53:08;;;;;;;3.13;1.93;;;;;;;31.37;35.51;98140.09;6918282;28;20207;-84